createdAt,value
2023-03-10T00:02:09.607Z,11.10
2023-03-10T00:04:36.552Z,10.30
2023-03-10T00:07:03.521Z,10.57
2023-03-10T00:09:30.393Z,11.10
2023-03-10T00:11:57.320Z,11.27
2023-03-10T00:14:25.652Z,10.77
2023-03-10T00:16:52.632Z,10.83
2023-03-10T00:19:19.495Z,9.97
2023-03-10T00:21:46.403Z,10.87
2023-03-10T00:24:13.317Z,11.10
2023-03-10T00:26:40.290Z,10.63
2023-03-10T00:29:07.236Z,10.03
2023-03-10T00:31:35.574Z,10.00
2023-03-10T00:34:02.611Z,10.40
2023-03-10T00:36:31.354Z,10.77
2023-03-10T00:39:04.503Z,10.53
2023-03-10T00:41:36.437Z,9.70
2023-03-10T00:44:04.057Z,10.40
2023-03-10T00:46:33.219Z,10.80
2023-03-10T00:49:01.989Z,10.27
2023-03-10T00:51:29.126Z,10.60
2023-03-10T00:53:56.056Z,9.83
2023-03-10T00:56:25.375Z,9.57
2023-03-10T00:58:54.864Z,10.20
2023-03-10T01:01:24.874Z,10.23
2023-03-10T01:03:53.052Z,11.47
2023-03-10T01:06:22.000Z,10.17
2023-03-10T01:08:49.603Z,10.30
2023-03-10T01:11:18.229Z,10.27
2023-03-10T01:13:45.857Z,10.33
2023-03-10T01:16:13.400Z,10.63
2023-03-10T01:18:40.994Z,10.80
2023-03-10T01:21:12.241Z,10.93
2023-03-10T01:23:40.519Z,9.90
2023-03-10T01:26:07.446Z,10.37
2023-03-10T01:28:34.404Z,11.10
2023-03-10T01:31:01.448Z,10.00
2023-03-10T01:33:28.380Z,11.27
2023-03-10T01:35:55.408Z,10.40
2023-03-10T01:38:22.319Z,10.23
2023-03-10T01:40:50.960Z,9.87
2023-03-10T01:43:32.158Z,10.50
2023-03-10T01:46:40.803Z,10.50
2023-03-10T01:49:16.494Z,9.93
2023-03-10T01:51:48.837Z,9.60
2023-03-10T01:54:24.755Z,9.90
2023-03-10T01:56:56.908Z,10.57
2023-03-10T01:59:26.982Z,9.73
2023-03-10T02:01:56.578Z,10.33
2023-03-10T02:04:34.432Z,10.20
2023-03-10T02:07:06.101Z,10.97
2023-03-10T02:09:38.874Z,9.87
2023-03-10T02:12:09.748Z,10.07
2023-03-10T02:14:37.888Z,9.23
2023-03-10T02:17:08.224Z,10.23
2023-03-10T02:19:58.938Z,9.87
2023-03-10T02:22:26.805Z,10.10
2023-03-10T02:25:03.320Z,8.67
2023-03-10T02:27:36.553Z,9.50
2023-03-10T02:30:09.548Z,9.00
2023-03-10T02:32:42.382Z,9.47
2023-03-10T02:35:10.422Z,9.17
2023-03-10T02:37:38.380Z,9.67
2023-03-10T02:40:33.663Z,9.90
2023-03-10T02:43:07.648Z,9.40
2023-03-10T02:45:40.630Z,10.00
2023-03-10T02:48:08.756Z,8.83
2023-03-10T02:50:40.294Z,8.57
2023-03-10T02:53:13.499Z,9.10
2023-03-10T02:55:40.783Z,9.43
2023-03-10T02:58:10.173Z,9.67
2023-03-10T03:00:38.692Z,9.70
2023-03-10T03:03:06.848Z,10.47
2023-03-10T03:05:34.459Z,9.20
2023-03-10T03:08:01.530Z,9.97
2023-03-10T03:10:28.849Z,10.20
2023-03-10T03:12:56.611Z,8.47
2023-03-10T03:15:25.506Z,10.00
2023-03-10T03:17:54.125Z,9.63
2023-03-10T03:20:21.756Z,9.30
2023-03-10T03:22:48.726Z,8.80
2023-03-10T03:25:19.005Z,9.27
2023-03-10T03:27:46.866Z,8.93
2023-03-10T03:30:16.986Z,9.33
2023-03-10T03:32:45.676Z,9.70
2023-03-10T03:35:16.686Z,8.67
2023-03-10T03:37:44.365Z,9.40
2023-03-10T03:40:13.464Z,8.70
2023-03-10T03:42:40.452Z,9.13
2023-03-10T03:45:09.310Z,8.53
2023-03-10T03:47:36.443Z,8.90
2023-03-10T03:50:07.442Z,9.30
2023-03-10T03:52:34.566Z,8.53
2023-03-10T03:55:01.896Z,8.57
2023-03-10T03:57:29.013Z,7.93
2023-03-10T03:59:55.954Z,9.03
2023-03-10T04:02:22.961Z,8.83
2023-03-10T04:04:50.603Z,8.47
2023-03-10T04:07:18.974Z,8.63
2023-03-10T04:09:46.529Z,8.03
2023-03-10T04:12:13.394Z,9.23
2023-03-10T04:14:40.380Z,8.27
2023-03-10T04:17:07.419Z,8.40
2023-03-10T04:19:34.564Z,9.23
2023-03-10T04:22:01.570Z,8.77
2023-03-10T04:24:29.824Z,8.90
2023-03-10T04:26:56.698Z,8.17
2023-03-10T04:29:24.474Z,8.30
2023-03-10T04:32:04.734Z,8.70
2023-03-10T04:34:33.506Z,7.63
2023-03-10T04:37:00.457Z,8.07
2023-03-10T04:39:28.757Z,8.63
2023-03-10T04:41:55.675Z,7.90
2023-03-10T04:44:30.953Z,8.53
2023-03-10T04:46:58.420Z,8.93
2023-03-10T04:49:25.518Z,8.10
2023-03-10T04:51:52.737Z,8.63
2023-03-10T04:54:19.661Z,7.80
2023-03-10T04:56:48.525Z,8.50
2023-03-10T04:59:15.576Z,8.20
2023-03-10T05:01:42.548Z,7.20
2023-03-10T05:04:10.422Z,8.87
2023-03-10T05:06:37.376Z,7.90
2023-03-10T05:09:04.887Z,8.30
2023-03-10T05:11:32.795Z,8.30
2023-03-10T05:14:01.524Z,8.53
2023-03-10T05:16:28.824Z,8.00
2023-03-10T05:18:55.838Z,8.60
2023-03-10T05:21:22.927Z,8.37
2023-03-10T05:23:49.983Z,8.03
2023-03-10T05:26:17.477Z,8.77
2023-03-10T05:28:44.630Z,11.83
2023-03-10T05:31:16.773Z,9.00
2023-03-10T05:33:44.405Z,8.43
2023-03-10T05:36:13.055Z,9.17
2023-03-10T05:38:40.019Z,8.40
2023-03-10T05:41:08.754Z,8.60
2023-03-10T05:43:36.355Z,8.93
2023-03-10T05:46:03.765Z,8.23
2023-03-10T05:48:32.397Z,8.47
2023-03-10T05:51:01.999Z,9.70
2023-03-10T05:53:29.940Z,9.47
2023-03-10T05:55:57.743Z,9.27
2023-03-10T05:58:26.386Z,9.23
2023-03-10T06:00:53.780Z,9.13
2023-03-10T06:03:23.250Z,9.67
2023-03-10T06:05:51.565Z,9.80
2023-03-10T06:08:18.695Z,10.03
2023-03-10T06:10:46.217Z,10.23
2023-03-10T06:13:13.237Z,10.97
2023-03-10T06:15:40.258Z,11.10
2023-03-10T06:18:07.204Z,10.97
2023-03-10T06:20:34.096Z,11.40
2023-03-10T06:23:02.307Z,11.50
2023-03-10T06:25:29.182Z,12.63
2023-03-10T06:27:56.083Z,12.27
2023-03-10T06:30:23.278Z,12.17
2023-03-10T06:32:50.225Z,12.80
2023-03-10T06:35:17.335Z,12.77
2023-03-10T06:37:44.339Z,12.80
2023-03-10T06:40:14.167Z,13.87
2023-03-10T06:42:42.465Z,12.67
2023-03-10T06:45:14.908Z,12.50
2023-03-10T06:47:41.933Z,12.43
2023-03-10T06:50:11.448Z,12.50
2023-03-10T06:52:38.452Z,12.30
2023-03-10T06:55:06.864Z,13.07
2023-03-10T06:57:35.422Z,13.47
2023-03-10T07:00:02.712Z,13.03
2023-03-10T07:02:29.621Z,13.00
2023-03-10T07:04:56.640Z,13.50
2023-03-10T07:07:23.585Z,13.67
2023-03-10T07:09:50.562Z,13.20
2023-03-10T07:12:17.482Z,12.67
2023-03-10T07:14:45.786Z,12.53
2023-03-10T07:17:14.060Z,12.80
2023-03-10T07:19:40.986Z,13.00
2023-03-10T07:22:09.710Z,13.47
2023-03-10T07:24:38.173Z,13.80
2023-03-10T07:27:05.783Z,13.13
2023-03-10T07:29:32.755Z,13.70
2023-03-10T07:32:01.471Z,13.97
2023-03-10T07:34:28.486Z,14.43
2023-03-10T07:36:55.474Z,15.03
2023-03-10T07:39:22.399Z,14.20
2023-03-10T07:41:49.373Z,13.57
2023-03-10T07:44:16.412Z,14.00
2023-03-10T07:46:43.593Z,13.73
2023-03-10T07:49:11.853Z,16.03
2023-03-10T07:51:38.799Z,15.53
2023-03-10T07:54:05.953Z,15.23
2023-03-10T07:56:32.914Z,13.67
2023-03-10T07:59:00.750Z,14.87
2023-03-10T08:01:27.718Z,13.80
2023-03-10T08:03:57.846Z,14.40
2023-03-10T08:06:28.986Z,14.33
2023-03-10T08:08:56.882Z,14.60
2023-03-10T08:11:24.063Z,13.10
2023-03-10T08:13:51.444Z,12.47
2023-03-10T08:16:21.191Z,11.13
2023-03-10T08:18:50.564Z,13.43
2023-03-10T08:21:17.658Z,13.40
2023-03-10T08:23:46.283Z,12.87
2023-03-10T08:26:16.805Z,12.70
2023-03-10T08:28:44.570Z,12.80
2023-03-10T08:31:15.313Z,14.13
2023-03-10T08:33:43.091Z,14.13
2023-03-10T08:36:15.001Z,20.90
2023-03-10T08:38:43.256Z,20.23
2023-03-10T08:41:17.140Z,14.83
2023-03-10T08:43:47.133Z,24.20
2023-03-10T08:46:16.127Z,15.23
2023-03-10T08:48:43.296Z,17.17
2023-03-10T08:51:15.197Z,15.23
2023-03-10T08:53:46.573Z,15.53
2023-03-10T08:56:16.533Z,24.70
2023-03-10T08:58:44.013Z,21.37
2023-03-10T09:01:11.410Z,16.13
2023-03-10T09:03:40.565Z,14.83
2023-03-10T09:06:08.438Z,13.00
2023-03-10T09:08:35.625Z,13.93
2023-03-10T09:11:03.538Z,14.27
2023-03-10T09:13:31.784Z,14.97
2023-03-10T09:15:59.048Z,13.57
2023-03-10T09:18:26.363Z,14.20
2023-03-10T09:20:53.420Z,14.43
2023-03-10T09:23:20.425Z,13.77
2023-03-10T09:25:47.426Z,14.03
2023-03-10T09:28:16.418Z,17.47
2023-03-10T09:30:48.050Z,14.73
2023-03-10T09:33:18.625Z,14.00
2023-03-10T09:35:52.932Z,13.53
2023-03-10T09:38:25.265Z,13.70
2023-03-10T09:41:03.899Z,15.63
2023-03-10T09:43:38.831Z,15.23
2023-03-10T09:46:19.920Z,14.37
2023-03-10T09:48:56.475Z,13.37
2023-03-10T09:51:27.125Z,13.30
2023-03-10T09:54:09.513Z,12.80
2023-03-10T09:56:37.230Z,16.05
2023-03-10T09:59:11.421Z,14.83
2023-03-10T10:01:44.814Z,14.10
2023-03-10T10:04:17.753Z,14.63
2023-03-10T10:06:48.400Z,14.07
2023-03-10T10:09:25.923Z,12.90
2023-03-10T10:11:52.849Z,13.30
2023-03-10T10:14:28.784Z,13.40
2023-03-10T10:17:08.930Z,12.80
2023-03-10T10:19:39.718Z,13.10
2023-03-10T10:22:19.012Z,13.20
2023-03-10T10:25:08.233Z,16.50
2023-03-10T10:27:36.696Z,13.23
2023-03-10T10:30:32.469Z,20.97
2023-03-10T10:33:03.240Z,13.03
2023-03-10T10:35:32.953Z,13.90
2023-03-10T10:38:04.116Z,12.80
2023-03-10T10:40:35.098Z,12.27
2023-03-10T10:43:07.525Z,13.17
2023-03-10T10:45:37.090Z,13.67
2023-03-10T10:48:06.461Z,13.77
2023-03-10T10:50:35.406Z,13.30
2023-03-10T10:53:20.754Z,13.63
2023-03-10T10:56:00.318Z,12.90
2023-03-10T10:58:32.465Z,12.90
2023-03-10T11:01:02.905Z,10.97
2023-03-10T11:03:35.330Z,13.23
2023-03-10T11:06:15.160Z,13.27
2023-03-10T11:08:42.955Z,12.70
2023-03-10T11:11:29.429Z,12.53
2023-03-10T11:14:19.437Z,12.03
2023-03-10T11:16:55.172Z,12.03
2023-03-10T11:19:35.032Z,12.47
2023-03-10T11:22:23.462Z,12.77
2023-03-10T11:25:01.156Z,12.43
2023-03-10T11:27:48.637Z,11.10
2023-03-10T11:30:25.787Z,12.87
2023-03-10T11:33:11.958Z,11.87
2023-03-10T11:35:45.927Z,12.00
2023-03-10T11:38:32.891Z,13.73
2023-03-10T11:41:06.284Z,13.90
2023-03-10T11:43:50.639Z,14.73
2023-03-10T11:46:25.017Z,13.77
2023-03-10T11:49:07.238Z,14.57
2023-03-10T11:51:41.735Z,14.00
2023-03-10T11:54:19.825Z,13.87
2023-03-10T11:56:48.694Z,14.33
2023-03-10T11:59:20.988Z,14.27
2023-03-10T12:01:56.020Z,15.37
2023-03-10T12:04:30.680Z,13.83
2023-03-10T12:07:07.705Z,19.00
2023-03-10T12:09:43.886Z,17.27
2023-03-10T12:12:16.598Z,14.53
2023-03-10T12:14:46.233Z,14.40
2023-03-10T12:17:16.603Z,14.57
2023-03-10T12:20:24.923Z,15.07
2023-03-10T12:22:54.557Z,13.50
2023-03-10T12:25:51.900Z,15.93
2023-03-10T12:28:25.560Z,14.27
2023-03-10T12:30:56.593Z,13.40
2023-03-10T12:33:47.842Z,14.13
2023-03-10T12:36:34.528Z,13.17
2023-03-10T12:39:32.981Z,13.67
2023-03-10T12:42:01.435Z,13.17
2023-03-10T12:44:51.213Z,13.47
2023-03-10T12:47:42.226Z,14.07
2023-03-10T12:50:33.735Z,14.27
2023-03-10T12:53:28.909Z,14.27
2023-03-10T12:56:34.067Z,13.53
2023-03-10T12:59:17.398Z,14.00
2023-03-10T13:01:55.588Z,14.43
2023-03-10T13:04:26.915Z,14.13
2023-03-10T13:07:03.370Z,14.37
2023-03-10T13:09:36.310Z,14.80
2023-03-10T13:12:12.571Z,16.53
2023-03-10T13:14:42.990Z,15.07
2023-03-10T13:17:23.215Z,15.47
2023-03-10T13:20:01.488Z,15.10
2023-03-10T13:22:28.443Z,16.33
2023-03-10T13:25:02.121Z,17.20
2023-03-10T13:27:33.753Z,17.40
2023-03-10T13:30:05.509Z,16.87
2023-03-10T13:32:33.999Z,17.23
2023-03-10T13:35:21.242Z,16.53
2023-03-10T13:38:10.225Z,15.43
2023-03-10T13:40:40.784Z,16.30
2023-03-10T13:43:32.266Z,18.37
2023-03-10T13:46:01.341Z,17.13
2023-03-10T13:48:31.539Z,17.27
2023-03-10T13:51:20.863Z,17.33
2023-03-10T13:53:52.570Z,18.47
2023-03-10T13:56:24.323Z,17.70
2023-03-10T13:58:58.063Z,17.47
2023-03-10T14:01:29.496Z,16.87
2023-03-10T14:04:00.495Z,16.87
2023-03-10T14:06:28.967Z,16.10
2023-03-10T14:08:56.415Z,17.40
2023-03-10T14:11:35.441Z,16.87
2023-03-10T14:14:07.822Z,16.20
2023-03-10T14:16:50.229Z,17.80
2023-03-10T14:19:48.962Z,17.93
2023-03-10T14:22:36.061Z,18.60
2023-03-10T14:25:09.815Z,17.47
2023-03-10T14:27:41.717Z,18.70
2023-03-10T14:30:26.909Z,17.70
2023-03-10T14:32:55.565Z,17.57
2023-03-10T14:35:25.584Z,18.80
2023-03-10T14:37:53.713Z,18.50
2023-03-10T14:40:23.474Z,18.57
2023-03-10T14:42:53.900Z,18.50
2023-03-10T14:45:30.699Z,18.43
2023-03-10T14:48:01.581Z,17.67
2023-03-10T14:50:30.385Z,18.97
2023-03-10T14:52:57.466Z,19.23
2023-03-10T14:55:24.786Z,18.23
2023-03-10T14:57:59.549Z,20.67
2023-03-10T15:00:28.100Z,18.30
2023-03-10T15:02:55.109Z,19.03
2023-03-10T15:05:27.605Z,19.80
2023-03-10T15:07:56.757Z,19.67
2023-03-10T15:10:23.929Z,19.07
2023-03-10T15:12:53.682Z,18.60
2023-03-10T15:15:24.076Z,20.27
2023-03-10T15:17:52.974Z,20.00
2023-03-10T15:20:24.126Z,19.67
2023-03-10T15:22:52.212Z,19.43
2023-03-10T15:25:21.676Z,19.83
2023-03-10T15:27:51.155Z,21.60
2023-03-10T15:30:22.083Z,20.03
2023-03-10T15:32:49.669Z,22.27
2023-03-10T15:35:19.042Z,20.20
2023-03-10T15:37:46.108Z,19.87
2023-03-10T15:40:17.912Z,20.23
2023-03-10T15:42:46.141Z,19.93
2023-03-10T15:45:14.849Z,20.30
2023-03-10T15:47:41.917Z,20.13
2023-03-10T15:50:11.637Z,20.43
2023-03-10T15:52:40.093Z,19.13
2023-03-10T15:55:08.169Z,18.57
2023-03-10T15:57:35.049Z,20.10
2023-03-10T16:00:01.976Z,19.97
2023-03-10T16:02:28.969Z,19.13
2023-03-10T16:04:55.833Z,17.40
2023-03-10T16:07:22.747Z,21.07
2023-03-10T16:09:51.154Z,20.13
2023-03-10T16:12:18.023Z,17.80
2023-03-10T16:14:44.923Z,17.20
2023-03-10T16:17:11.811Z,18.30
2023-03-10T16:19:38.895Z,16.67
2023-03-10T16:22:05.988Z,16.63
2023-03-10T16:24:33.113Z,16.20
2023-03-10T16:27:01.313Z,15.83
2023-03-10T16:29:28.663Z,14.93
2023-03-10T16:31:55.658Z,16.10
2023-03-10T16:34:22.651Z,18.70
2023-03-10T16:36:50.350Z,15.33
2023-03-10T16:39:17.944Z,19.70
2023-03-10T16:41:45.015Z,16.60
2023-03-10T16:44:15.314Z,15.80
2023-03-10T16:46:42.740Z,22.83
2023-03-10T16:49:14.751Z,14.77
2023-03-10T16:51:45.176Z,15.13
2023-03-10T16:54:15.612Z,13.87
2023-03-10T16:56:45.766Z,14.70
2023-03-10T16:59:18.048Z,14.50
2023-03-10T17:01:45.502Z,12.63
2023-03-10T17:04:12.902Z,13.47
2023-03-10T17:06:40.640Z,13.57
2023-03-10T17:09:10.422Z,12.90
2023-03-10T17:11:39.414Z,13.17
2023-03-10T17:14:10.607Z,13.53
2023-03-10T17:16:38.947Z,14.87
2023-03-10T17:19:10.285Z,13.43
2023-03-10T17:21:40.046Z,15.00
2023-03-10T17:24:08.224Z,11.27
2023-03-10T17:26:36.244Z,12.33
2023-03-10T17:29:04.034Z,11.83
2023-03-10T17:31:31.755Z,12.37
2023-03-10T17:34:02.967Z,11.87
2023-03-10T17:36:30.405Z,11.63
2023-03-10T17:39:00.413Z,11.10
2023-03-10T17:41:29.522Z,10.83
2023-03-10T17:43:57.298Z,11.97
2023-03-10T17:46:26.916Z,10.97
2023-03-10T17:48:55.253Z,11.60
2023-03-10T17:51:26.335Z,11.90
2023-03-10T17:53:56.024Z,11.53
2023-03-10T17:56:23.390Z,11.47
2023-03-10T17:58:52.709Z,12.43
2023-03-10T18:01:22.905Z,12.97
2023-03-10T18:03:49.921Z,13.67
2023-03-10T18:06:19.637Z,12.63
2023-03-10T18:08:49.452Z,12.13
2023-03-10T18:11:17.853Z,12.67
2023-03-10T18:13:45.321Z,12.37
2023-03-10T18:16:17.503Z,12.33
2023-03-10T18:18:44.828Z,12.63
2023-03-10T18:21:13.943Z,12.30
2023-03-10T18:23:41.274Z,11.97
2023-03-10T18:26:12.068Z,11.40
2023-03-10T18:28:40.126Z,12.20
2023-03-10T18:31:09.036Z,12.00
2023-03-10T18:33:36.629Z,14.40
2023-03-10T18:36:05.859Z,13.87
2023-03-10T18:38:33.081Z,14.67
2023-03-10T18:41:02.996Z,12.83
2023-03-10T18:43:33.676Z,10.90
2023-03-10T18:46:00.940Z,9.67
2023-03-10T18:48:28.600Z,10.57
2023-03-10T18:50:58.034Z,10.10
2023-03-10T18:53:27.279Z,8.87
2023-03-10T18:55:54.363Z,9.40
2023-03-10T18:58:22.513Z,10.17
2023-03-10T19:00:51.219Z,10.13
2023-03-10T19:03:19.046Z,10.93
2023-03-10T19:05:46.119Z,10.47
2023-03-10T19:08:13.016Z,11.90
2023-03-10T19:10:40.077Z,11.23
2023-03-10T19:13:07.935Z,13.40
2023-03-10T19:15:36.730Z,11.40
2023-03-10T19:18:05.323Z,11.53
2023-03-10T19:20:32.212Z,11.40
2023-03-10T19:23:00.088Z,10.33
2023-03-10T19:25:26.998Z,10.47
2023-03-10T19:27:53.828Z,10.40
2023-03-10T19:30:21.028Z,11.10
2023-03-10T19:32:48.775Z,11.10
2023-03-10T19:35:18.961Z,10.17
2023-03-10T19:37:47.046Z,10.97
2023-03-10T19:40:18.762Z,11.07
2023-03-10T19:42:46.531Z,11.63
2023-03-10T19:45:16.762Z,10.47
2023-03-10T19:47:45.034Z,10.70
2023-03-10T19:50:15.067Z,10.50
2023-03-10T19:52:48.430Z,10.20
2023-03-10T19:55:19.498Z,9.23
2023-03-10T19:57:48.422Z,10.17
2023-03-10T20:00:18.988Z,9.23
2023-03-10T20:02:46.291Z,8.30
2023-03-10T20:05:14.768Z,8.13
2023-03-10T20:07:44.418Z,8.73
2023-03-10T20:10:14.613Z,8.63
2023-03-10T20:12:41.698Z,8.40
2023-03-10T20:15:10.431Z,8.03
2023-03-10T20:17:37.490Z,8.13
2023-03-10T20:20:10.488Z,8.40
2023-03-10T20:22:39.380Z,8.07
2023-03-10T20:25:08.776Z,8.30
2023-03-10T20:27:38.190Z,9.27
2023-03-10T20:30:08.488Z,9.83
2023-03-10T20:32:35.654Z,9.10
2023-03-10T20:35:04.417Z,8.00
2023-03-10T20:37:31.997Z,8.80
2023-03-10T20:39:58.893Z,8.10
2023-03-10T20:42:25.768Z,8.57
2023-03-10T20:44:54.011Z,9.20
2023-03-10T20:47:20.938Z,9.33
2023-03-10T20:49:47.902Z,9.53
2023-03-10T20:52:14.876Z,9.10
2023-03-10T20:54:41.830Z,9.83
2023-03-10T20:57:08.750Z,10.13
2023-03-10T20:59:36.758Z,10.33
2023-03-10T21:02:05.643Z,10.93
2023-03-10T21:04:33.325Z,10.43
2023-03-10T21:07:00.244Z,8.90
2023-03-10T21:09:27.226Z,10.77
2023-03-10T21:11:55.612Z,11.83
2023-03-10T21:14:22.847Z,9.90
2023-03-10T21:16:49.826Z,11.47
2023-03-10T21:19:18.200Z,11.33
2023-03-10T21:21:45.086Z,10.70
2023-03-10T21:24:12.033Z,10.47
2023-03-10T21:26:39.070Z,10.63
2023-03-10T21:29:06.077Z,12.43
2023-03-10T21:31:32.991Z,10.00
2023-03-10T21:33:59.950Z,10.30
2023-03-10T21:36:28.194Z,9.60
2023-03-10T21:38:55.116Z,9.30
2023-03-10T21:41:25.068Z,8.93
2023-03-10T21:43:53.597Z,9.30
2023-03-10T21:46:21.177Z,9.40
2023-03-10T21:48:48.457Z,10.57
2023-03-10T21:51:18.767Z,11.87
2023-03-10T21:53:47.698Z,10.83
2023-03-10T21:56:17.614Z,9.33
2023-03-10T21:58:45.651Z,8.33
2023-03-10T22:01:15.316Z,9.30
2023-03-10T22:03:43.060Z,8.83
2023-03-10T22:06:10.697Z,9.37
2023-03-10T22:08:38.783Z,8.73
2023-03-10T22:11:09.198Z,8.67
2023-03-10T22:13:38.336Z,9.03
2023-03-10T22:16:09.520Z,8.60
2023-03-10T22:18:36.796Z,8.97
2023-03-10T22:21:04.305Z,8.50
2023-03-10T22:23:31.179Z,9.00
2023-03-10T22:25:58.120Z,9.67
2023-03-10T22:28:26.552Z,10.10
2023-03-10T22:30:53.567Z,10.03
2023-03-10T22:33:20.511Z,9.50
2023-03-10T22:35:51.922Z,8.47
2023-03-10T22:38:20.123Z,8.80
2023-03-10T22:40:47.232Z,9.13
2023-03-10T22:43:15.177Z,8.57
2023-03-10T22:45:43.520Z,8.67
2023-03-10T22:48:10.644Z,7.97
2023-03-10T22:50:40.118Z,8.13
2023-03-10T22:53:12.850Z,8.33
2023-03-10T22:55:42.354Z,7.70
2023-03-10T22:58:11.011Z,7.23
2023-03-10T23:00:39.529Z,7.03
2023-03-10T23:03:11.395Z,7.57
2023-03-10T23:05:38.546Z,6.47
2023-03-10T23:08:06.887Z,6.43
2023-03-10T23:10:36.559Z,6.60
2023-03-10T23:13:07.319Z,5.60
2023-03-10T23:15:37.704Z,5.07
2023-03-10T23:18:07.111Z,4.73
2023-03-10T23:20:37.699Z,5.17
2023-03-10T23:23:06.869Z,5.37
2023-03-10T23:25:36.792Z,4.73
2023-03-10T23:28:06.230Z,4.90
2023-03-10T23:30:34.065Z,5.00
2023-03-10T23:33:01.124Z,4.53
2023-03-10T23:35:32.300Z,4.33
2023-03-10T23:38:01.392Z,5.00
2023-03-10T23:40:30.477Z,4.57
2023-03-10T23:43:00.730Z,3.60
2023-03-10T23:45:30.910Z,3.10
2023-03-10T23:48:01.323Z,3.40
2023-03-10T23:50:34.543Z,3.87
2023-03-10T23:53:03.227Z,2.97
2023-03-10T23:55:33.965Z,2.53
2023-03-10T23:58:01.164Z,2.23
